sensor_id;sensor_type;location;lat;lon;timestamp;temperature;humidity
13856;DHT22;6998;53.608;9.958;2023-05-23T03:09:10;16.10;99.90
13856;DHT22;6998;53.608;9.958;2023-05-23T03:11:50;16.10;99.90
13856;DHT22;6998;53.608;9.958;2023-05-23T03:14:19;16.20;99.90
13856;DHT22;6998;53.608;9.958;2023-05-23T03:17:13;16.20;99.90
13856;DHT22;6998;53.608;9.958;2023-05-23T03:23:03;16.10;99.90
13856;DHT22;6998;53.608;9.958;2023-05-23T03:25:31;16.10;99.90
13856;DHT22;6998;53.608;9.958;2023-05-23T03:27:58;16.10;99.90
13856;DHT22;6998;53.608;9.958;2023-05-23T03:30:25;16.00;99.90
13856;DHT22;6998;53.608;9.958;2023-05-23T03:32:52;16.00;99.90
13856;DHT22;6998;53.608;9.958;2023-05-23T03:35:20;16.00;99.90
13856;DHT22;6998;53.608;9.958;2023-05-23T03:37:47;16.00;99.90
13856;DHT22;6998;53.608;9.958;2023-05-23T03:43:11;16.00;99.90
13856;DHT22;6998;53.608;9.958;2023-05-23T03:45:38;16.00;99.90
13856;DHT22;6998;53.608;9.958;2023-05-23T03:48:06;16.00;99.90
13856;DHT22;6998;53.608;9.958;2023-05-23T03:50:35;15.90;99.90
13856;DHT22;6998;53.608;9.958;2023-05-23T03:53:02;15.80;99.90
13856;DHT22;6998;53.608;9.958;2023-05-23T03:55:30;15.70;99.90
13856;DHT22;6998;53.608;9.958;2023-05-23T03:57:57;15.70;99.90
13856;DHT22;6998;53.608;9.958;2023-05-23T04:00:26;15.70;99.90
13856;DHT22;6998;53.608;9.958;2023-05-23T04:02:52;15.70;99.90
13856;DHT22;6998;53.608;9.958;2023-05-23T04:05:20;15.70;99.90
13856;DHT22;6998;53.608;9.958;2023-05-23T04:07:47;15.70;99.90
13856;DHT22;6998;53.608;9.958;2023-05-23T04:10:14;15.80;99.90
13856;DHT22;6998;53.608;9.958;2023-05-23T04:12:41;15.80;99.90
13856;DHT22;6998;53.608;9.958;2023-05-23T04:15:08;15.80;99.90
13856;DHT22;6998;53.608;9.958;2023-05-23T04:17:37;15.70;99.90
13856;DHT22;6998;53.608;9.958;2023-05-23T04:20:06;15.60;99.90
13856;DHT22;6998;53.608;9.958;2023-05-23T04:22:34;15.60;99.90
13856;DHT22;6998;53.608;9.958;2023-05-23T04:25:01;15.50;99.90
13856;DHT22;6998;53.608;9.958;2023-05-23T04:27:28;15.50;99.90
13856;DHT22;6998;53.608;9.958;2023-05-23T04:29:55;15.50;99.90
13856;DHT22;6998;53.608;9.958;2023-05-23T04:32:22;15.50;99.90
13856;DHT22;6998;53.608;9.958;2023-05-23T04:34:51;15.50;99.90
13856;DHT22;6998;53.608;9.958;2023-05-23T04:37:18;15.50;99.90
13856;DHT22;6998;53.608;9.958;2023-05-23T04:39:46;15.60;99.90
13856;DHT22;6998;53.608;9.958;2023-05-23T04:42:13;15.50;99.90
13856;DHT22;6998;53.608;9.958;2023-05-23T04:44:40;15.50;99.90
13856;DHT22;6998;53.608;9.958;2023-05-23T04:47:07;15.50;99.90
13856;DHT22;6998;53.608;9.958;2023-05-23T04:49:35;15.50;99.90
13856;DHT22;6998;53.608;9.958;2023-05-23T04:52:03;15.50;99.90
13856;DHT22;6998;53.608;9.958;2023-05-23T04:54:31;15.40;99.90
13856;DHT22;6998;53.608;9.958;2023-05-23T04:56:57;15.50;99.90
13856;DHT22;6998;53.608;9.958;2023-05-23T04:59:27;15.40;99.90
13856;DHT22;6998;53.608;9.958;2023-05-23T05:02:00;15.50;99.90
13856;DHT22;6998;53.608;9.958;2023-05-23T05:04:29;15.60;99.90
13856;DHT22;6998;53.608;9.958;2023-05-23T05:06:56;15.40;99.90
13856;DHT22;6998;53.608;9.958;2023-05-23T05:09:24;15.60;99.90
13856;DHT22;6998;53.608;9.958;2023-05-23T05:11:51;15.50;99.90
13856;DHT22;6998;53.608;9.958;2023-05-23T05:14:18;15.50;99.90
13856;DHT22;6998;53.608;9.958;2023-05-23T05:16:44;15.50;99.90
13856;DHT22;6998;53.608;9.958;2023-05-23T05:19:13;15.40;99.90
13856;DHT22;6998;53.608;9.958;2023-05-23T05:21:40;15.40;99.90
13856;DHT22;6998;53.608;9.958;2023-05-23T05:24:34;15.50;99.90
13856;DHT22;6998;53.608;9.958;2023-05-23T05:27:01;15.60;99.90
13856;DHT22;6998;53.608;9.958;2023-05-23T05:29:29;15.50;99.90
13856;DHT22;6998;53.608;9.958;2023-05-23T05:32:21;15.50;99.90
13856;DHT22;6998;53.608;9.958;2023-05-23T05:34:48;15.50;99.90
13856;DHT22;6998;53.608;9.958;2023-05-23T05:37:15;15.50;99.90
13856;DHT22;6998;53.608;9.958;2023-05-23T05:39:44;15.60;99.90
13856;DHT22;6998;53.608;9.958;2023-05-23T05:42:18;15.60;99.90
13856;DHT22;6998;53.608;9.958;2023-05-23T05:44:49;15.60;99.90
13856;DHT22;6998;53.608;9.958;2023-05-23T05:47:16;15.60;99.90
13856;DHT22;6998;53.608;9.958;2023-05-23T05:49:45;15.60;99.90
13856;DHT22;6998;53.608;9.958;2023-05-23T05:52:13;15.60;99.90
13856;DHT22;6998;53.608;9.958;2023-05-23T05:54:40;15.50;99.90
13856;DHT22;6998;53.608;9.958;2023-05-23T05:57:10;15.50;99.90
13856;DHT22;6998;53.608;9.958;2023-05-23T05:59:38;15.50;99.90
13856;DHT22;6998;53.608;9.958;2023-05-23T06:02:05;15.50;99.90
13856;DHT22;6998;53.608;9.958;2023-05-23T06:04:34;15.60;99.90
13856;DHT22;6998;53.608;9.958;2023-05-23T06:07:01;15.60;99.90
13856;DHT22;6998;53.608;9.958;2023-05-23T06:09:34;15.60;99.90
13856;DHT22;6998;53.608;9.958;2023-05-23T06:12:16;15.60;99.90
13856;DHT22;6998;53.608;9.958;2023-05-23T06:14:43;15.60;99.90
13856;DHT22;6998;53.608;9.958;2023-05-23T06:17:10;15.70;99.90
13856;DHT22;6998;53.608;9.958;2023-05-23T06:19:45;15.60;99.90
13856;DHT22;6998;53.608;9.958;2023-05-23T06:22:17;15.70;99.90
13856;DHT22;6998;53.608;9.958;2023-05-23T06:24:44;15.60;99.90
13856;DHT22;6998;53.608;9.958;2023-05-23T06:27:11;15.60;99.90
13856;DHT22;6998;53.608;9.958;2023-05-23T06:29:41;15.60;99.90
13856;DHT22;6998;53.608;9.958;2023-05-23T06:32:16;15.60;99.90
13856;DHT22;6998;53.608;9.958;2023-05-23T06:34:50;15.50;99.90
13856;DHT22;6998;53.608;9.958;2023-05-23T06:41:24;15.30;99.90
13856;DHT22;6998;53.608;9.958;2023-05-23T06:43:56;15.40;99.90
13856;DHT22;6998;53.608;9.958;2023-05-23T06:46:25;15.40;99.90
13856;DHT22;6998;53.608;9.958;2023-05-23T06:48:52;15.50;99.90
13856;DHT22;6998;53.608;9.958;2023-05-23T06:51:19;15.50;99.90
13856;DHT22;6998;53.608;9.958;2023-05-23T06:53:45;15.40;99.90
13856;DHT22;6998;53.608;9.958;2023-05-23T06:56:26;15.40;99.90
13856;DHT22;6998;53.608;9.958;2023-05-23T06:58:53;15.30;99.90
13856;DHT22;6998;53.608;9.958;2023-05-23T07:01:25;15.30;99.90
13856;DHT22;6998;53.608;9.958;2023-05-23T07:03:52;15.30;99.90
13856;DHT22;6998;53.608;9.958;2023-05-23T07:06:19;15.80;99.90
13856;DHT22;6998;53.608;9.958;2023-05-23T07:08:46;15.20;99.90
13856;DHT22;6998;53.608;9.958;2023-05-23T07:11:13;15.30;99.90
13856;DHT22;6998;53.608;9.958;2023-05-23T07:13:40;15.20;99.90
13856;DHT22;6998;53.608;9.958;2023-05-23T07:16:06;15.20;99.90
13856;DHT22;6998;53.608;9.958;2023-05-23T07:18:47;15.20;99.90
13856;DHT22;6998;53.608;9.958;2023-05-23T07:24:55;15.20;99.90
13856;DHT22;6998;53.608;9.958;2023-05-23T07:27:22;15.20;99.90
13856;DHT22;6998;53.608;9.958;2023-05-23T07:29:50;15.20;99.90
13856;DHT22;6998;53.608;9.958;2023-05-23T07:32:17;15.30;99.90
13856;DHT22;6998;53.608;9.958;2023-05-23T07:34:45;15.30;99.90
13856;DHT22;6998;53.608;9.958;2023-05-23T07:37:12;15.40;99.90
13856;DHT22;6998;53.608;9.958;2023-05-23T07:39:40;15.40;99.90
13856;DHT22;6998;53.608;9.958;2023-05-23T07:42:07;15.50;99.90
13856;DHT22;6998;53.608;9.958;2023-05-23T07:44:34;15.60;99.90
13856;DHT22;6998;53.608;9.958;2023-05-23T07:47:01;15.80;99.90
13856;DHT22;6998;53.608;9.958;2023-05-23T07:49:28;15.90;99.90
13856;DHT22;6998;53.608;9.958;2023-05-23T07:51:57;16.00;99.90
13856;DHT22;6998;53.608;9.958;2023-05-23T07:54:24;16.00;99.90
13856;DHT22;6998;53.608;9.958;2023-05-23T07:56:51;15.90;99.90
13856;DHT22;6998;53.608;9.958;2023-05-23T07:59:18;15.80;99.90
13856;DHT22;6998;53.608;9.958;2023-05-23T08:01:47;15.70;99.90
13856;DHT22;6998;53.608;9.958;2023-05-23T08:04:15;15.60;99.90
13856;DHT22;6998;53.608;9.958;2023-05-23T08:06:41;15.70;99.90
13856;DHT22;6998;53.608;9.958;2023-05-23T08:09:13;15.80;99.90
13856;DHT22;6998;53.608;9.958;2023-05-23T08:11:40;15.90;99.90
13856;DHT22;6998;53.608;9.958;2023-05-23T08:14:07;16.00;99.90
13856;DHT22;6998;53.608;9.958;2023-05-23T08:16:34;16.00;99.90
13856;DHT22;6998;53.608;9.958;2023-05-23T08:19:01;16.10;99.90
13856;DHT22;6998;53.608;9.958;2023-05-23T08:21:27;16.10;99.90
13856;DHT22;6998;53.608;9.958;2023-05-23T08:23:54;16.10;99.90
13856;DHT22;6998;53.608;9.958;2023-05-23T08:26:22;16.00;99.90
13856;DHT22;6998;53.608;9.958;2023-05-23T08:28:51;16.10;99.90
13856;DHT22;6998;53.608;9.958;2023-05-23T08:31:23;16.00;99.90
13856;DHT22;6998;53.608;9.958;2023-05-23T08:33:51;15.90;99.90
13856;DHT22;6998;53.608;9.958;2023-05-23T08:36:18;15.80;99.90
13856;DHT22;6998;53.608;9.958;2023-05-23T08:38:45;15.60;99.90
13856;DHT22;6998;53.608;9.958;2023-05-23T08:41:17;15.60;99.90
13856;DHT22;6998;53.608;9.958;2023-05-23T08:43:45;15.50;99.90
13856;DHT22;6998;53.608;9.958;2023-05-23T08:46:13;15.40;99.90
13856;DHT22;6998;53.608;9.958;2023-05-23T08:48:50;15.40;99.90
13856;DHT22;6998;53.608;9.958;2023-05-23T08:51:20;15.40;99.90
13856;DHT22;6998;53.608;9.958;2023-05-23T08:53:48;15.20;99.90
13856;DHT22;6998;53.608;9.958;2023-05-23T08:56:15;15.20;99.90
13856;DHT22;6998;53.608;9.958;2023-05-23T09:29:11;14.10;99.90
13856;DHT22;6998;53.608;9.958;2023-05-23T09:31:37;14.00;99.90
13856;DHT22;6998;53.608;9.958;2023-05-23T09:34:04;14.00;99.90
13856;DHT22;6998;53.608;9.958;2023-05-23T09:36:32;14.00;99.90
13856;DHT22;6998;53.608;9.958;2023-05-23T09:39:01;14.00;99.90
13856;DHT22;6998;53.608;9.958;2023-05-23T09:41:29;13.90;99.90
13856;DHT22;6998;53.608;9.958;2023-05-23T09:43:58;13.90;99.90
13856;DHT22;6998;53.608;9.958;2023-05-23T09:46:34;13.90;99.90
13856;DHT22;6998;53.608;9.958;2023-05-23T09:49:01;13.80;99.90
13856;DHT22;6998;53.608;9.958;2023-05-23T09:51:28;13.80;99.90
13856;DHT22;6998;53.608;9.958;2023-05-23T09:53:55;13.80;99.90
13856;DHT22;6998;53.608;9.958;2023-05-23T09:56:22;13.70;99.90
13856;DHT22;6998;53.608;9.958;2023-05-23T09:58:50;13.80;99.90
13856;DHT22;6998;53.608;9.958;2023-05-23T10:01:18;13.90;99.90
13856;DHT22;6998;53.608;9.958;2023-05-23T10:03:51;13.90;99.90
13856;DHT22;6998;53.608;9.958;2023-05-23T10:29:05;13.90;99.90
13856;DHT22;6998;53.608;9.958;2023-05-23T10:31:55;14.00;99.90
13856;DHT22;6998;53.608;9.958;2023-05-23T10:34:28;14.00;99.90
13856;DHT22;6998;53.608;9.958;2023-05-23T10:37:02;14.00;99.90
13856;DHT22;6998;53.608;9.958;2023-05-23T10:42:53;14.00;99.90
13856;DHT22;6998;53.608;9.958;2023-05-23T10:45:26;14.10;99.90
13856;DHT22;6998;53.608;9.958;2023-05-23T10:47:53;14.10;99.90
13856;DHT22;6998;53.608;9.958;2023-05-23T10:50:32;14.20;99.90
13856;DHT22;6998;53.608;9.958;2023-05-23T10:53:10;14.20;99.90
13856;DHT22;6998;53.608;9.958;2023-05-23T10:55:48;14.20;99.90
13856;DHT22;6998;53.608;9.958;2023-05-23T10:58:18;14.20;99.90
13856;DHT22;6998;53.608;9.958;2023-05-23T11:00:54;14.10;99.90
13856;DHT22;6998;53.608;9.958;2023-05-23T11:03:33;14.10;99.90
13856;DHT22;6998;53.608;9.958;2023-05-23T11:06:01;14.10;99.90
13856;DHT22;6998;53.608;9.958;2023-05-23T11:08:35;14.20;99.90
13856;DHT22;6998;53.608;9.958;2023-05-23T11:11:04;14.50;99.90
13856;DHT22;6998;53.608;9.958;2023-05-23T11:13:54;14.80;99.90
13856;DHT22;6998;53.608;9.958;2023-05-23T11:16:29;15.10;99.90
13856;DHT22;6998;53.608;9.958;2023-05-23T11:19:24;15.30;99.90
13856;DHT22;6998;53.608;9.958;2023-05-23T11:23:45;15.40;99.90
13856;DHT22;6998;53.608;9.958;2023-05-23T11:25:41;15.60;99.90
13856;DHT22;6998;53.608;9.958;2023-05-23T11:28:08;16.00;99.90
13856;DHT22;6998;53.608;9.958;2023-05-23T11:30:39;16.20;99.90
13856;DHT22;6998;53.608;9.958;2023-05-23T11:33:16;16.30;99.90
13856;DHT22;6998;53.608;9.958;2023-05-23T11:38:54;16.20;99.90
13856;DHT22;6998;53.608;9.958;2023-05-23T11:41:22;16.10;99.90
13856;DHT22;6998;53.608;9.958;2023-05-23T11:43:52;16.20;99.90
13856;DHT22;6998;53.608;9.958;2023-05-23T11:46:23;16.10;99.90
13856;DHT22;6998;53.608;9.958;2023-05-23T11:48:51;16.20;99.90
13856;DHT22;6998;53.608;9.958;2023-05-23T11:51:18;16.40;99.90
13856;DHT22;6998;53.608;9.958;2023-05-23T11:53:49;16.40;99.90
13856;DHT22;6998;53.608;9.958;2023-05-23T11:56:16;16.50;99.90
13856;DHT22;6998;53.608;9.958;2023-05-23T11:58:42;16.40;99.90
13856;DHT22;6998;53.608;9.958;2023-05-23T12:01:11;16.40;99.90
13856;DHT22;6998;53.608;9.958;2023-05-23T12:03:44;16.30;99.90
13856;DHT22;6998;53.608;9.958;2023-05-23T12:06:15;16.30;99.90
13856;DHT22;6998;53.608;9.958;2023-05-23T12:08:45;16.20;99.90
13856;DHT22;6998;53.608;9.958;2023-05-23T12:11:12;16.10;99.90
13856;DHT22;6998;53.608;9.958;2023-05-23T12:13:40;16.20;99.90
13856;DHT22;6998;53.608;9.958;2023-05-23T12:16:09;16.30;99.90
13856;DHT22;6998;53.608;9.958;2023-05-23T12:18:41;16.50;99.90
13856;DHT22;6998;53.608;9.958;2023-05-23T12:21:08;16.50;99.90
13856;DHT22;6998;53.608;9.958;2023-05-23T12:23:38;16.80;99.90
13856;DHT22;6998;53.608;9.958;2023-05-23T12:26:05;17.00;99.90
13856;DHT22;6998;53.608;9.958;2023-05-23T12:28:36;17.20;99.90
13856;DHT22;6998;53.608;9.958;2023-05-23T12:31:11;16.90;99.90
13856;DHT22;6998;53.608;9.958;2023-05-23T12:33:38;16.70;99.90
13856;DHT22;6998;53.608;9.958;2023-05-23T12:36:08;16.80;99.90
13856;DHT22;6998;53.608;9.958;2023-05-23T12:38:38;16.90;99.90
13856;DHT22;6998;53.608;9.958;2023-05-23T12:41:09;17.00;99.90
13856;DHT22;6998;53.608;9.958;2023-05-23T12:43:37;17.10;99.90
13856;DHT22;6998;53.608;9.958;2023-05-23T12:46:05;17.20;99.90
13856;DHT22;6998;53.608;9.958;2023-05-23T12:48:32;17.50;99.90
13856;DHT22;6998;53.608;9.958;2023-05-23T12:50:58;17.70;99.90
13856;DHT22;6998;53.608;9.958;2023-05-23T12:53:28;17.70;99.90
13856;DHT22;6998;53.608;9.958;2023-05-23T12:55:56;17.60;99.90
13856;DHT22;6998;53.608;9.958;2023-05-23T12:58:23;17.60;99.90
13856;DHT22;6998;53.608;9.958;2023-05-23T13:00:50;17.80;99.90
13856;DHT22;6998;53.608;9.958;2023-05-23T13:03:17;18.00;99.90
13856;DHT22;6998;53.608;9.958;2023-05-23T13:05:44;18.00;99.90
13856;DHT22;6998;53.608;9.958;2023-05-23T13:08:10;17.60;99.90
13856;DHT22;6998;53.608;9.958;2023-05-23T13:10:37;17.20;99.90
13856;DHT22;6998;53.608;9.958;2023-05-23T13:13:05;17.00;99.90
13856;DHT22;6998;53.608;9.958;2023-05-23T13:15:32;16.90;99.90
13856;DHT22;6998;53.608;9.958;2023-05-23T13:17:59;16.90;99.90
13856;DHT22;6998;53.608;9.958;2023-05-23T13:20:27;17.00;99.90
13856;DHT22;6998;53.608;9.958;2023-05-23T13:22:54;16.90;99.90
13856;DHT22;6998;53.608;9.958;2023-05-23T13:25:24;16.60;99.90
13856;DHT22;6998;53.608;9.958;2023-05-23T13:27:52;16.40;99.90
13856;DHT22;6998;53.608;9.958;2023-05-23T13:30:22;16.20;99.90
13856;DHT22;6998;53.608;9.958;2023-05-23T13:32:52;16.20;99.90
13856;DHT22;6998;53.608;9.958;2023-05-23T13:35:19;16.40;99.90
13856;DHT22;6998;53.608;9.958;2023-05-23T13:37:45;16.50;99.90
13856;DHT22;6998;53.608;9.958;2023-05-23T13:40:16;16.70;99.90
13856;DHT22;6998;53.608;9.958;2023-05-23T13:42:43;16.40;99.90
13856;DHT22;6998;53.608;9.958;2023-05-23T13:45:11;16.40;99.90
13856;DHT22;6998;53.608;9.958;2023-05-23T13:47:39;16.50;99.90
13856;DHT22;6998;53.608;9.958;2023-05-23T13:50:07;17.00;99.90
13856;DHT22;6998;53.608;9.958;2023-05-23T13:52:34;16.60;99.90
13856;DHT22;6998;53.608;9.958;2023-05-23T13:55:01;16.70;99.90
13856;DHT22;6998;53.608;9.958;2023-05-23T13:57:29;16.70;99.90
13856;DHT22;6998;53.608;9.958;2023-05-23T13:59:55;16.70;99.90
13856;DHT22;6998;53.608;9.958;2023-05-23T14:02:22;17.00;99.90
13856;DHT22;6998;53.608;9.958;2023-05-23T14:04:50;17.10;99.90
13856;DHT22;6998;53.608;9.958;2023-05-23T14:07:18;17.10;99.90
13856;DHT22;6998;53.608;9.958;2023-05-23T14:09:45;16.90;99.90
13856;DHT22;6998;53.608;9.958;2023-05-23T14:12:12;16.70;99.90
13856;DHT22;6998;53.608;9.958;2023-05-23T14:14:39;16.70;99.90
13856;DHT22;6998;53.608;9.958;2023-05-23T14:17:06;16.70;99.90
13856;DHT22;6998;53.608;9.958;2023-05-23T14:19:33;16.50;99.90
13856;DHT22;6998;53.608;9.958;2023-05-23T14:22:02;16.30;99.90
13856;DHT22;6998;53.608;9.958;2023-05-23T14:24:29;16.10;99.90
13856;DHT22;6998;53.608;9.958;2023-05-23T14:26:56;16.00;99.90
13856;DHT22;6998;53.608;9.958;2023-05-23T14:29:23;15.80;99.90
13856;DHT22;6998;53.608;9.958;2023-05-23T14:31:50;15.50;99.90
13856;DHT22;6998;53.608;9.958;2023-05-23T14:34:17;15.50;99.90
13856;DHT22;6998;53.608;9.958;2023-05-23T14:36:45;15.60;99.90
13856;DHT22;6998;53.608;9.958;2023-05-23T14:39:14;15.60;99.90
13856;DHT22;6998;53.608;9.958;2023-05-23T14:41:41;15.60;99.90
13856;DHT22;6998;53.608;9.958;2023-05-23T14:44:07;15.70;99.90
13856;DHT22;6998;53.608;9.958;2023-05-23T14:46:34;15.80;99.90
13856;DHT22;6998;53.608;9.958;2023-05-23T14:49:05;15.70;99.90
13856;DHT22;6998;53.608;9.958;2023-05-23T14:51:31;15.40;99.90
13856;DHT22;6998;53.608;9.958;2023-05-23T14:53:58;15.30;99.90
13856;DHT22;6998;53.608;9.958;2023-05-23T14:56:27;15.30;99.90
13856;DHT22;6998;53.608;9.958;2023-05-23T14:58:53;15.30;99.90
13856;DHT22;6998;53.608;9.958;2023-05-23T15:01:22;15.50;99.90
13856;DHT22;6998;53.608;9.958;2023-05-23T15:03:49;15.70;99.90
13856;DHT22;6998;53.608;9.958;2023-05-23T15:06:15;15.90;99.90
13856;DHT22;6998;53.608;9.958;2023-05-23T15:08:43;15.80;99.90
13856;DHT22;6998;53.608;9.958;2023-05-23T15:11:11;15.50;99.90
13856;DHT22;6998;53.608;9.958;2023-05-23T15:13:39;15.40;99.90
13856;DHT22;6998;53.608;9.958;2023-05-23T15:16:06;15.30;99.90
13856;DHT22;6998;53.608;9.958;2023-05-23T15:18:33;15.30;99.90
13856;DHT22;6998;53.608;9.958;2023-05-23T15:20:59;15.20;99.90
13856;DHT22;6998;53.608;9.958;2023-05-23T15:23:26;15.30;99.90
13856;DHT22;6998;53.608;9.958;2023-05-23T15:25:56;15.50;99.90
13856;DHT22;6998;53.608;9.958;2023-05-23T15:28:26;15.80;99.90
13856;DHT22;6998;53.608;9.958;2023-05-23T15:30:54;16.00;99.90
13856;DHT22;6998;53.608;9.958;2023-05-23T15:33:23;16.10;99.90
13856;DHT22;6998;53.608;9.958;2023-05-23T15:35:50;16.00;99.90
13856;DHT22;6998;53.608;9.958;2023-05-23T15:38:18;16.00;99.90
13856;DHT22;6998;53.608;9.958;2023-05-23T15:40:45;15.90;99.90
13856;DHT22;6998;53.608;9.958;2023-05-23T15:43:13;15.70;99.90
13856;DHT22;6998;53.608;9.958;2023-05-23T15:45:39;15.40;99.90
13856;DHT22;6998;53.608;9.958;2023-05-23T15:48:08;15.10;99.90
13856;DHT22;6998;53.608;9.958;2023-05-23T15:50:35;15.00;99.90
13856;DHT22;6998;53.608;9.958;2023-05-23T15:53:02;14.80;99.90
13856;DHT22;6998;53.608;9.958;2023-05-23T15:55:29;14.90;99.90
13856;DHT22;6998;53.608;9.958;2023-05-23T15:57:55;14.90;99.90
13856;DHT22;6998;53.608;9.958;2023-05-23T16:00:22;14.90;99.90
13856;DHT22;6998;53.608;9.958;2023-05-23T16:02:49;15.10;99.90
13856;DHT22;6998;53.608;9.958;2023-05-23T16:05:17;15.20;99.90
13856;DHT22;6998;53.608;9.958;2023-05-23T16:07:44;15.20;99.90
13856;DHT22;6998;53.608;9.958;2023-05-23T16:10:14;15.20;99.90
13856;DHT22;6998;53.608;9.958;2023-05-23T16:12:42;15.30;99.90
13856;DHT22;6998;53.608;9.958;2023-05-23T16:15:09;15.20;99.90
13856;DHT22;6998;53.608;9.958;2023-05-23T16:17:36;15.20;99.90
13856;DHT22;6998;53.608;9.958;2023-05-23T16:20:04;15.10;99.90
13856;DHT22;6998;53.608;9.958;2023-05-23T16:22:32;14.90;99.90
13856;DHT22;6998;53.608;9.958;2023-05-23T16:24:59;14.90;99.90
13856;DHT22;6998;53.608;9.958;2023-05-23T16:27:26;14.90;99.90
13856;DHT22;6998;53.608;9.958;2023-05-23T16:29:53;14.80;99.90
13856;DHT22;6998;53.608;9.958;2023-05-23T16:32:20;14.70;99.90
13856;DHT22;6998;53.608;9.958;2023-05-23T16:34:47;14.60;99.90
13856;DHT22;6998;53.608;9.958;2023-05-23T16:37:13;14.50;99.90
13856;DHT22;6998;53.608;9.958;2023-05-23T16:40:13;14.50;99.90
13856;DHT22;6998;53.608;9.958;2023-05-23T16:42:40;14.50;99.90
13856;DHT22;6998;53.608;9.958;2023-05-23T16:45:07;14.10;99.90
13856;DHT22;6998;53.608;9.958;2023-05-23T16:47:34;14.40;99.90
13856;DHT22;6998;53.608;9.958;2023-05-23T16:50:01;14.40;99.90
13856;DHT22;6998;53.608;9.958;2023-05-23T16:52:29;14.60;99.90
13856;DHT22;6998;53.608;9.958;2023-05-23T16:54:59;14.70;99.90
13856;DHT22;6998;53.608;9.958;2023-05-23T16:57:27;14.60;99.90
13856;DHT22;6998;53.608;9.958;2023-05-23T16:59:54;14.80;99.90
13856;DHT22;6998;53.608;9.958;2023-05-23T17:02:20;14.90;99.90
13856;DHT22;6998;53.608;9.958;2023-05-23T17:04:47;14.80;99.90
13856;DHT22;6998;53.608;9.958;2023-05-23T17:07:14;14.60;99.90
13856;DHT22;6998;53.608;9.958;2023-05-23T17:09:43;14.40;99.90
13856;DHT22;6998;53.608;9.958;2023-05-23T17:12:10;14.30;99.90
13856;DHT22;6998;53.608;9.958;2023-05-23T17:14:39;14.20;99.90
13856;DHT22;6998;53.608;9.958;2023-05-23T17:17:06;14.10;99.90
13856;DHT22;6998;53.608;9.958;2023-05-23T17:19:33;13.90;99.90
13856;DHT22;6998;53.608;9.958;2023-05-23T17:22:00;13.90;99.90
13856;DHT22;6998;53.608;9.958;2023-05-23T17:24:28;13.80;99.90
13856;DHT22;6998;53.608;9.958;2023-05-23T17:26:54;13.70;99.90
13856;DHT22;6998;53.608;9.958;2023-05-23T17:29:21;13.70;99.90
13856;DHT22;6998;53.608;9.958;2023-05-23T17:31:55;13.60;99.90
13856;DHT22;6998;53.608;9.958;2023-05-23T17:34:22;13.60;99.90
13856;DHT22;6998;53.608;9.958;2023-05-23T17:36:49;13.60;99.90
13856;DHT22;6998;53.608;9.958;2023-05-23T17:39:17;13.50;99.90
13856;DHT22;6998;53.608;9.958;2023-05-23T17:41:44;13.50;99.90
13856;DHT22;6998;53.608;9.958;2023-05-23T17:44:11;13.50;99.90
13856;DHT22;6998;53.608;9.958;2023-05-23T17:46:38;13.60;99.90
13856;DHT22;6998;53.608;9.958;2023-05-23T17:49:06;13.50;99.90
13856;DHT22;6998;53.608;9.958;2023-05-23T17:51:33;13.50;99.90
13856;DHT22;6998;53.608;9.958;2023-05-23T17:54:00;13.50;99.90
13856;DHT22;6998;53.608;9.958;2023-05-23T17:56:28;13.30;99.90
13856;DHT22;6998;53.608;9.958;2023-05-23T17:58:55;13.10;99.90
13856;DHT22;6998;53.608;9.958;2023-05-23T18:01:22;13.00;99.90
13856;DHT22;6998;53.608;9.958;2023-05-23T18:03:50;12.90;99.90
13856;DHT22;6998;53.608;9.958;2023-05-23T18:06:19;12.90;99.90
13856;DHT22;6998;53.608;9.958;2023-05-23T18:08:46;12.90;99.90
13856;DHT22;6998;53.608;9.958;2023-05-23T18:11:13;12.90;99.90
13856;DHT22;6998;53.608;9.958;2023-05-23T18:13:39;12.70;99.90
13856;DHT22;6998;53.608;9.958;2023-05-23T18:16:06;12.70;99.90
13856;DHT22;6998;53.608;9.958;2023-05-23T18:18:33;12.70;99.90
13856;DHT22;6998;53.608;9.958;2023-05-23T18:21:00;12.60;99.90
13856;DHT22;6998;53.608;9.958;2023-05-23T18:23:28;12.60;99.90
13856;DHT22;6998;53.608;9.958;2023-05-23T18:25:55;12.50;99.90
13856;DHT22;6998;53.608;9.958;2023-05-23T18:28:22;12.60;99.90
13856;DHT22;6998;53.608;9.958;2023-05-23T18:30:49;12.60;99.90
13856;DHT22;6998;53.608;9.958;2023-05-23T18:33:16;12.60;99.90
13856;DHT22;6998;53.608;9.958;2023-05-23T18:35:43;12.50;99.90
13856;DHT22;6998;53.608;9.958;2023-05-23T18:38:11;12.50;99.90
13856;DHT22;6998;53.608;9.958;2023-05-23T18:40:39;12.50;99.90
13856;DHT22;6998;53.608;9.958;2023-05-23T18:43:06;12.60;99.90
13856;DHT22;6998;53.608;9.958;2023-05-23T18:45:32;12.50;99.90
13856;DHT22;6998;53.608;9.958;2023-05-23T18:48:01;12.50;99.90
13856;DHT22;6998;53.608;9.958;2023-05-23T18:50:29;12.50;99.90
13856;DHT22;6998;53.608;9.958;2023-05-23T18:52:56;12.50;99.90
13856;DHT22;6998;53.608;9.958;2023-05-23T18:55:23;12.40;99.90
13856;DHT22;6998;53.608;9.958;2023-05-23T18:57:52;12.40;99.90
13856;DHT22;6998;53.608;9.958;2023-05-23T19:00:19;12.20;99.90
13856;DHT22;6998;53.608;9.958;2023-05-23T19:02:46;12.10;99.90
13856;DHT22;6998;53.608;9.958;2023-05-23T19:05:13;12.10;99.90
13856;DHT22;6998;53.608;9.958;2023-05-23T19:07:40;12.00;99.90
13856;DHT22;6998;53.608;9.958;2023-05-23T19:10:07;11.90;99.90
13856;DHT22;6998;53.608;9.958;2023-05-23T19:12:34;11.90;99.90
13856;DHT22;6998;53.608;9.958;2023-05-23T19:15:05;11.70;99.90
13856;DHT22;6998;53.608;9.958;2023-05-23T19:17:33;11.80;99.90
13856;DHT22;6998;53.608;9.958;2023-05-23T19:20:00;11.70;99.90
13856;DHT22;6998;53.608;9.958;2023-05-23T19:22:27;11.70;99.90
13856;DHT22;6998;53.608;9.958;2023-05-23T19:24:54;11.60;99.90
13856;DHT22;6998;53.608;9.958;2023-05-23T19:27:26;11.60;99.90
13856;DHT22;6998;53.608;9.958;2023-05-23T19:29:53;11.60;99.90
13856;DHT22;6998;53.608;9.958;2023-05-23T19:32:22;11.60;99.90
13856;DHT22;6998;53.608;9.958;2023-05-23T19:34:49;11.50;99.90
13856;DHT22;6998;53.608;9.958;2023-05-23T19:37:16;11.40;99.90
13856;DHT22;6998;53.608;9.958;2023-05-23T19:39:44;11.40;99.90
13856;DHT22;6998;53.608;9.958;2023-05-23T19:42:11;11.50;99.90
13856;DHT22;6998;53.608;9.958;2023-05-23T19:44:38;11.40;99.90
13856;DHT22;6998;53.608;9.958;2023-05-23T19:47:06;11.40;99.90
13856;DHT22;6998;53.608;9.958;2023-05-23T19:49:37;11.50;99.90
13856;DHT22;6998;53.608;9.958;2023-05-23T19:52:04;11.50;99.90
13856;DHT22;6998;53.608;9.958;2023-05-23T19:54:31;11.50;99.90
13856;DHT22;6998;53.608;9.958;2023-05-23T19:56:58;11.50;99.90
13856;DHT22;6998;53.608;9.958;2023-05-23T19:59:25;11.60;99.90
13856;DHT22;6998;53.608;9.958;2023-05-23T20:01:52;11.50;99.90
13856;DHT22;6998;53.608;9.958;2023-05-23T20:04:18;11.40;99.90
13856;DHT22;6998;53.608;9.958;2023-05-23T20:06:50;11.40;99.90
13856;DHT22;6998;53.608;9.958;2023-05-23T20:09:20;11.50;99.90
13856;DHT22;6998;53.608;9.958;2023-05-23T20:11:47;11.50;99.90
13856;DHT22;6998;53.608;9.958;2023-05-23T20:14:14;11.50;99.90
13856;DHT22;6998;53.608;9.958;2023-05-23T20:16:43;11.40;99.90